Time;durP1;ratioP1;P1;durP2;ratioP2;P2;SDS_P1;SDS_P2;PMS_P1;PMS_P2;Temp;Humidity;BMP_temperature;BMP_pressure;BME280_temperature;BME280_humidity;BME280_pressure;Samples;Min_cycle;Max_cycle;Signal;HPM_P1;HPM_P2
2024/02/05 00:00:20;;;;;;;1.20;1.10;;;5.70;99.90;;;;;;5035081;28;20235;-77
2024/02/05 00:02:46;;;;;;;2.10;1.90;;;5.70;99.90;;;;;;5034645;28;20215;-76
2024/02/05 00:05:14;;;;;;;1.10;1.00;;;5.80;99.90;;;;;;5034881;28;20594;-76
2024/02/05 00:07:41;;;;;;;1.10;0.98;;;5.80;99.90;;;;;;5042043;28;20207;-76
2024/02/05 00:10:10;;;;;;;1.25;1.15;;;5.80;99.90;;;;;;5042755;28;20203;-76
2024/02/05 00:12:36;;;;;;;1.38;1.27;;;5.80;99.90;;;;;;5034562;28;20298;-77
2024/02/05 00:15:04;;;;;;;1.08;0.90;;;5.80;99.90;;;;;;5035260;28;20237;-76
2024/02/05 00:17:31;;;;;;;2.97;1.10;;;5.80;99.90;;;;;;5034463;28;20198;-76
2024/02/05 00:19:57;;;;;;;1.30;1.08;;;5.90;99.90;;;;;;5034752;28;20208;-77
2024/02/05 00:22:25;;;;;;;1.50;1.40;;;5.90;99.90;;;;;;5035098;28;20219;-76
2024/02/05 00:24:52;;;;;;;1.92;1.38;;;5.90;99.90;;;;;;5034709;28;20201;-76
2024/02/05 00:27:19;;;;;;;2.40;1.25;;;5.90;99.90;;;;;;5035002;28;20221;-77
2024/02/05 00:29:45;;;;;;;1.20;1.00;;;5.90;99.90;;;;;;5041774;28;20235;-76
2024/02/05 00:32:12;;;;;;;1.50;1.40;;;5.90;99.90;;;;;;5042830;28;20199;-76
2024/02/05 00:34:39;;;;;;;1.20;1.00;;;6.00;99.90;;;;;;5034850;28;20242;-76
2024/02/05 00:37:05;;;;;;;1.30;1.20;;;6.00;99.90;;;;;;5042801;28;20206;-76
2024/02/05 00:39:33;;;;;;;1.60;0.90;;;6.00;99.90;;;;;;5046014;28;20571;-76
2024/02/05 00:42:00;;;;;;;2.55;1.25;;;6.00;99.90;;;;;;5038246;28;20203;-76
2024/02/05 00:44:27;;;;;;;2.58;1.23;;;6.10;99.90;;;;;;5035494;28;20210;-76
2024/02/05 00:46:53;;;;;;;1.30;1.20;;;5.90;99.90;;;;;;5042068;28;20226;-76
2024/02/05 00:49:20;;;;;;;1.90;1.48;;;5.90;99.90;;;;;;5035587;28;20241;-76
2024/02/05 00:51:47;;;;;;;2.45;1.17;;;5.90;99.90;;;;;;5034909;28;20210;-76
2024/02/05 00:54:14;;;;;;;1.30;0.93;;;5.80;99.90;;;;;;5035893;28;20206;-76
2024/02/05 00:56:42;;;;;;;1.50;1.15;;;5.80;99.90;;;;;;5034636;28;20225;-76
2024/02/05 00:59:08;;;;;;;1.63;1.17;;;5.70;99.90;;;;;;5035781;28;20222;-76
2024/02/05 01:01:35;;;;;;;1.17;1.08;;;5.70;99.90;;;;;;5034797;28;20232;-76
2024/02/05 01:04:02;;;;;;;1.05;0.95;;;5.70;99.90;;;;;;5035441;28;20202;-77
2024/02/05 01:06:29;;;;;;;1.45;1.20;;;5.70;99.90;;;;;;5035688;28;20753;-77
2024/02/05 01:08:56;;;;;;;1.65;1.00;;;5.70;99.90;;;;;;5035380;28;20601;-77
2024/02/05 01:11:24;;;;;;;1.40;1.20;;;5.80;99.90;;;;;;5036098;28;20297;-76
2024/02/05 01:13:52;;;;;;;1.58;0.98;;;5.90;99.90;;;;;;5035283;28;20598;-76
2024/02/05 01:16:19;;;;;;;1.55;1.23;;;6.00;99.90;;;;;;5036236;28;20221;-75
2024/02/05 01:18:46;;;;;;;1.58;1.00;;;6.10;99.90;;;;;;5035222;28;20223;-77
2024/02/05 01:21:12;;;;;;;0.95;0.85;;;6.20;99.90;;;;;;5036369;28;20237;-76
2024/02/05 01:23:39;;;;;;;1.10;1.00;;;6.30;99.90;;;;;;5042186;28;20209;-76
2024/02/05 01:26:06;;;;;;;1.00;0.90;;;6.30;99.90;;;;;;5042610;28;20202;-76
2024/02/05 01:28:32;;;;;;;1.10;0.88;;;6.40;99.90;;;;;;5042348;28;20684;-76
2024/02/05 01:31:01;;;;;;;1.20;1.00;;;6.50;99.90;;;;;;5035141;28;20200;-76
2024/02/05 01:33:27;;;;;;;1.00;0.90;;;6.50;99.90;;;;;;5035120;28;20211;-77
2024/02/05 01:35:54;;;;;;;0.70;0.70;;;6.50;99.90;;;;;;5034911;28;20225;-77
2024/02/05 01:38:21;;;;;;;1.00;0.80;;;6.60;99.90;;;;;;5042741;28;20607;-77
2024/02/05 01:40:49;;;;;;;1.10;0.82;;;6.70;99.90;;;;;;5041997;28;20217;-76
2024/02/05 01:43:17;;;;;;;1.23;1.05;;;6.70;99.90;;;;;;5036071;28;20208;-76
2024/02/05 01:45:44;;;;;;;0.88;0.70;;;6.70;99.90;;;;;;5034893;28;20581;-76
2024/02/05 01:48:15;;;;;;;1.35;0.90;;;6.80;99.90;;;;;;5036710;28;20275;-76
2024/02/05 01:50:42;;;;;;;1.42;1.02;;;6.90;99.90;;;;;;5035233;28;20233;-76
2024/02/05 01:53:09;;;;;;;0.88;0.80;;;6.90;99.90;;;;;;5043250;28;20208;-76
2024/02/05 01:55:36;;;;;;;0.93;0.85;;;6.90;99.90;;;;;;5034999;28;20224;-76
2024/02/05 01:58:03;;;;;;;0.70;0.60;;;7.00;99.90;;;;;;5035816;28;20615;-77
2024/02/05 02:00:30;;;;;;;0.80;0.70;;;7.00;99.90;;;;;;5036109;28;20230;-76
2024/02/05 02:02:57;;;;;;;1.25;0.80;;;7.10;99.90;;;;;;5035258;28;20246;-76
2024/02/05 02:05:25;;;;;;;1.00;0.90;;;7.10;99.90;;;;;;5037046;28;20650;-76
2024/02/05 02:07:52;;;;;;;1.02;0.90;;;7.20;99.90;;;;;;5035258;28;20314;-77
2024/02/05 02:10:19;;;;;;;1.08;0.80;;;7.20;99.90;;;;;;5037129;28;20216;-76
2024/02/05 02:12:46;;;;;;;0.95;0.70;;;7.20;99.90;;;;;;5035293;28;20713;-77
2024/02/05 02:15:13;;;;;;;1.02;0.93;;;7.20;99.90;;;;;;5037211;28;20230;-77
2024/02/05 02:17:45;;;;;;;0.90;0.77;;;7.20;99.90;;;;;;5045352;28;20214;-76
2024/02/05 02:20:12;;;;;;;0.90;0.80;;;7.20;99.90;;;;;;5051632;28;20202;-77
2024/02/05 02:22:52;;;;;;;0.90;0.77;;;7.20;99.90;;;;;;5035330;28;20199;-76
2024/02/05 02:25:20;;;;;;;1.00;0.90;;;7.20;99.90;;;;;;5037624;28;20228;-76
2024/02/05 02:27:47;;;;;;;0.80;0.70;;;7.20;99.90;;;;;;5035180;28;20587;-76
2024/02/05 02:30:17;;;;;;;0.90;0.70;;;7.20;99.90;;;;;;5037547;28;20208;-76
2024/02/05 02:32:55;;;;;;;1.23;0.90;;;7.30;99.90;;;;;;5035539;28;20216;-76
2024/02/05 02:35:27;;;;;;;1.10;1.00;;;7.30;99.90;;;;;;5037681;28;20723;-77
2024/02/05 02:38:00;;;;;;;2.90;1.35;;;7.20;99.90;;;;;;5035580;28;20321;-77
2024/02/05 02:40:31;;;;;;;1.83;1.00;;;7.30;99.90;;;;;;5035609;28;20273;-76
2024/02/05 02:43:00;;;;;;;0.90;0.80;;;7.30;99.90;;;;;;5035804;28;20231;-76
2024/02/05 02:45:28;;;;;;;1.10;1.00;;;7.20;99.90;;;;;;5035634;28;20553;-75
2024/02/05 02:47:55;;;;;;;1.10;1.00;;;7.20;99.90;;;;;;5035960;28;20227;-76
2024/02/05 02:50:22;;;;;;;1.42;1.05;;;7.20;99.90;;;;;;5044019;28;20249;-77
2024/02/05 02:52:49;;;;;;;0.70;0.70;;;7.10;99.90;;;;;;5035760;28;20207;-76
2024/02/05 02:55:16;;;;;;;1.08;0.90;;;7.10;99.90;;;;;;5038209;28;20219;-76
2024/02/05 02:57:44;;;;;;;1.00;0.90;;;7.00;99.90;;;;;;5035504;28;20207;-76
2024/02/05 03:00:12;;;;;;;1.20;1.10;;;7.00;99.90;;;;;;5038605;28;20216;-76
2024/02/05 03:02:39;;;;;;;1.05;0.90;;;7.00;99.90;;;;;;5036415;28;20241;-76
2024/02/05 03:05:08;;;;;;;1.10;1.00;;;6.90;99.90;;;;;;5036933;28;20605;-76
2024/02/05 03:07:35;;;;;;;0.80;0.73;;;7.00;99.90;;;;;;5036985;28;20265;-76
2024/02/05 03:10:03;;;;;;;1.10;1.00;;;7.00;99.90;;;;;;5036241;28;20210;-76
2024/02/05 03:12:29;;;;;;;2.55;1.27;;;7.00;99.90;;;;;;5038097;28;20694;-77
2024/02/05 03:14:57;;;;;;;1.00;0.90;;;6.90;99.90;;;;;;5036212;28;20210;-77
2024/02/05 03:17:24;;;;;;;0.80;0.68;;;6.90;99.90;;;;;;5044045;28;20225;-76
2024/02/05 03:19:51;;;;;;;1.88;1.05;;;6.90;99.90;;;;;;5036220;28;20218;-76
2024/02/05 03:22:17;;;;;;;1.08;0.98;;;6.90;99.90;;;;;;5038722;28;20207;-76
2024/02/05 03:24:44;;;;;;;1.10;0.90;;;7.00;99.90;;;;;;5036488;28;20671;-76
2024/02/05 03:27:11;;;;;;;1.02;0.88;;;7.00;99.90;;;;;;5037719;28;20226;-76
2024/02/05 03:29:37;;;;;;;1.23;0.90;;;7.00;99.90;;;;;;5042674;28;20275;-76
2024/02/05 03:32:06;;;;;;;1.50;0.80;;;7.00;99.90;;;;;;5037082;28;20210;-76
2024/02/05 03:34:33;;;;;;;0.90;0.80;;;7.00;99.90;;;;;;5038513;28;20215;-76
2024/02/05 03:37:00;;;;;;;0.80;0.80;;;7.00;99.90;;;;;;5036307;28;20214;-77
2024/02/05 03:39:27;;;;;;;1.00;0.82;;;7.00;99.90;;;;;;5036437;28;20268;-76
2024/02/05 03:41:53;;;;;;;2.00;0.73;;;7.00;99.90;;;;;;5037163;28;20321;-76
2024/02/05 03:44:20;;;;;;;0.70;0.70;;;7.00;99.90;;;;;;5039410;28;20215;-76
2024/02/05 03:46:47;;;;;;;0.80;0.70;;;7.00;99.90;;;;;;5036312;28;20201;-76
2024/02/05 03:49:15;;;;;;;0.80;0.60;;;7.00;99.90;;;;;;5038607;28;20223;-76
2024/02/05 03:51:42;;;;;;;2.47;0.90;;;7.10;99.90;;;;;;5037541;28;20646;-76
2024/02/05 03:54:08;;;;;;;0.80;0.70;;;7.10;99.90;;;;;;5038095;28;20207;-76
2024/02/05 03:56:35;;;;;;;0.80;0.70;;;7.10;99.90;;;;;;5038468;28;20229;-76
2024/02/05 03:59:02;;;;;;;0.80;0.70;;;7.00;99.90;;;;;;5036969;28;20228;-76
2024/02/05 04:01:30;;;;;;;0.98;0.88;;;7.00;99.90;;;;;;5039536;28;20210;-76
2024/02/05 04:03:56;;;;;;;0.80;0.80;;;7.00;99.90;;;;;;5037118;28;20202;-77
2024/02/05 04:06:25;;;;;;;1.48;1.08;;;7.00;99.90;;;;;;5042200;28;20202;-76
2024/02/05 04:08:51;;;;;;;0.85;0.85;;;7.10;99.90;;;;;;5053370;28;20225;-76
2024/02/05 04:11:18;;;;;;;0.90;0.70;;;7.10;99.90;;;;;;5048156;28;20213;-77
2024/02/05 04:13:45;;;;;;;0.85;0.60;;;7.10;99.90;;;;;;5049054;28;20208;-77
2024/02/05 04:16:14;;;;;;;0.80;0.80;;;7.00;99.90;;;;;;5044129;28;20234;-76
2024/02/05 04:18:40;;;;;;;0.80;0.70;;;7.00;99.90;;;;;;5048876;28;20227;-76
2024/02/05 04:21:08;;;;;;;0.80;0.80;;;7.00;99.90;;;;;;5047335;28;20212;-77
2024/02/05 04:23:36;;;;;;;0.82;0.80;;;7.00;99.90;;;;;;5048399;28;20209;-77
2024/02/05 04:26:04;;;;;;;0.70;0.70;;;7.00;99.90;;;;;;5048580;28;20211;-76
2024/02/05 04:28:33;;;;;;;1.13;0.93;;;7.00;99.90;;;;;;5048207;28;20230;-76
2024/02/05 04:31:00;;;;;;;1.17;1.05;;;6.90;99.90;;;;;;5051682;28;20577;-76
2024/02/05 04:33:27;;;;;;;0.80;0.70;;;6.90;99.90;;;;;;5043631;28;20294;-76
2024/02/05 04:35:54;;;;;;;1.20;0.90;;;6.90;99.90;;;;;;5040892;28;20223;-76
2024/02/05 04:38:20;;;;;;;1.15;0.85;;;6.90;99.90;;;;;;5045522;28;20240;-76
2024/02/05 04:40:48;;;;;;;1.83;0.75;;;6.80;99.90;;;;;;5040970;28;20586;-76
2024/02/05 04:43:15;;;;;;;1.10;0.93;;;6.80;99.90;;;;;;5042310;28;20207;-76
2024/02/05 04:45:42;;;;;;;0.90;0.80;;;6.80;99.90;;;;;;5039956;28;20591;-76
2024/02/05 04:48:09;;;;;;;0.90;0.70;;;6.80;99.90;;;;;;5043477;28;20238;-76
2024/02/05 04:50:35;;;;;;;0.90;0.80;;;6.80;99.90;;;;;;5043218;28;20211;-76
2024/02/05 04:53:02;;;;;;;0.80;0.80;;;6.70;99.90;;;;;;5047677;28;20211;-77
2024/02/05 04:55:29;;;;;;;0.90;0.80;;;6.70;99.90;;;;;;5049058;28;20204;-77
2024/02/05 04:57:57;;;;;;;1.02;0.90;;;6.80;99.90;;;;;;5047081;28;20239;-78
2024/02/05 05:00:24;;;;;;;1.10;0.85;;;6.80;99.90;;;;;;5047767;28;20690;-78
2024/02/05 05:02:51;;;;;;;1.55;0.90;;;6.80;99.90;;;;;;5047200;28;20214;-78
2024/02/05 05:05:18;;;;;;;0.80;0.70;;;6.80;99.90;;;;;;5050542;28;20710;-79
2024/02/05 05:07:45;;;;;;;1.42;0.90;;;6.80;99.90;;;;;;5045298;28;20577;-76
2024/02/05 05:10:11;;;;;;;0.80;0.80;;;6.80;99.90;;;;;;5052288;28;20231;-73
2024/02/05 05:12:38;;;;;;;0.80;0.77;;;6.80;99.90;;;;;;5052730;28;20210;-75
2024/02/05 05:15:07;;;;;;;1.02;0.80;;;6.80;99.90;;;;;;5050689;28;20210;-74
2024/02/05 05:17:33;;;;;;;0.77;0.70;;;6.80;99.90;;;;;;5042818;28;20228;-74
2024/02/05 05:20:00;;;;;;;1.00;0.90;;;6.80;99.90;;;;;;5041158;28;20203;-74
2024/02/05 05:22:27;;;;;;;0.80;0.80;;;6.80;99.90;;;;;;5044981;28;20218;-74
2024/02/05 05:24:54;;;;;;;1.20;0.73;;;6.80;99.90;;;;;;5040361;28;20210;-74
2024/02/05 05:27:21;;;;;;;1.17;0.80;;;6.70;99.90;;;;;;5043790;28;20691;-74
2024/02/05 05:29:47;;;;;;;1.08;0.80;;;6.70;99.90;;;;;;5042201;28;20235;-74
2024/02/05 05:32:15;;;;;;;0.77;0.70;;;6.70;99.90;;;;;;5043412;28;20198;-74
2024/02/05 05:34:42;;;;;;;1.00;0.90;;;6.60;99.90;;;;;;5043502;28;20213;-74
2024/02/05 05:37:09;;;;;;;1.00;0.90;;;6.60;99.90;;;;;;5042165;28;20243;-73
2024/02/05 05:39:36;;;;;;;0.70;0.70;;;6.60;99.90;;;;;;5044338;28;20702;-73
2024/02/05 05:42:03;;;;;;;1.08;0.80;;;6.70;99.90;;;;;;5041862;28;20209;-74
2024/02/05 05:44:30;;;;;;;1.25;0.98;;;6.60;99.90;;;;;;5045037;28;20216;-74
2024/02/05 05:46:58;;;;;;;0.90;0.80;;;6.60;99.90;;;;;;5041288;28;20252;-74
2024/02/05 05:49:26;;;;;;;0.93;0.82;;;6.60;99.90;;;;;;5044750;28;20233;-74
2024/02/05 05:51:53;;;;;;;0.90;0.80;;;6.60;99.90;;;;;;5042051;28;20221;-75
2024/02/05 05:54:20;;;;;;;0.80;0.60;;;6.60;99.90;;;;;;5044269;28;20205;-75
2024/02/05 05:56:47;;;;;;;0.80;0.70;;;6.60;99.90;;;;;;5042869;28;20226;-76
2024/02/05 05:59:14;;;;;;;0.77;0.73;;;6.70;99.90;;;;;;5043416;28;20281;-74
2024/02/05 06:01:41;;;;;;;0.70;0.70;;;6.60;99.90;;;;;;5044069;28;20306;-74
2024/02/05 06:04:08;;;;;;;1.23;1.13;;;6.60;99.90;;;;;;5042743;28;20203;-74
2024/02/05 06:06:37;;;;;;;0.70;0.63;;;6.60;99.90;;;;;;5044915;28;20678;-75
2024/02/05 06:09:05;;;;;;;1.02;0.93;;;6.60;99.90;;;;;;5050241;28;20311;-74
2024/02/05 06:11:32;;;;;;;0.80;0.70;;;6.60;99.90;;;;;;5048379;28;20212;-75
2024/02/05 06:13:59;;;;;;;1.23;1.00;;;6.60;99.90;;;;;;5044793;28;20565;-74
2024/02/05 06:16:28;;;;;;;0.95;0.75;;;6.60;99.90;;;;;;5039864;28;20224;-74
2024/02/05 06:18:54;;;;;;;0.80;0.80;;;6.60;99.90;;;;;;5042522;28;20288;-74
2024/02/05 06:21:22;;;;;;;0.90;0.80;;;6.60;99.90;;;;;;5044683;28;20301;-73
2024/02/05 06:23:50;;;;;;;1.10;1.00;;;6.60;99.90;;;;;;5043524;28;20217;-74
2024/02/05 06:26:17;;;;;;;1.33;1.00;;;6.60;99.90;;;;;;5043548;28;20204;-74
2024/02/05 06:28:43;;;;;;;0.80;0.80;;;6.50;99.90;;;;;;5038705;28;20237;-74
2024/02/05 06:31:12;;;;;;;1.13;0.90;;;6.50;99.90;;;;;;5044632;28;20198;-74
2024/02/05 06:33:38;;;;;;;1.00;0.90;;;6.50;99.90;;;;;;5056451;28;20263;-74
2024/02/05 06:36:06;;;;;;;1.08;0.75;;;6.50;99.90;;;;;;5055985;28;20700;-74
2024/02/05 06:38:33;;;;;;;0.90;0.80;;;6.50;99.90;;;;;;5057817;28;20237;-74
2024/02/05 06:41:02;;;;;;;0.80;0.70;;;6.50;99.90;;;;;;5044265;28;20201;-75
2024/02/05 06:43:30;;;;;;;1.98;1.02;;;6.40;99.90;;;;;;5040049;28;20212;-75
2024/02/05 06:45:56;;;;;;;1.20;0.88;;;6.40;99.90;;;;;;5042603;28;20210;-75
2024/02/05 06:48:23;;;;;;;0.80;0.80;;;6.50;99.90;;;;;;5045059;28;20229;-76
2024/02/05 06:50:50;;;;;;;0.80;0.80;;;6.50;99.90;;;;;;5043815;28;20579;-75
2024/02/05 06:53:16;;;;;;;1.15;0.80;;;6.50;99.90;;;;;;5044382;28;20211;-74
2024/02/05 06:55:44;;;;;;;0.70;0.70;;;6.50;99.90;;;;;;5044397;28;20613;-74
2024/02/05 06:58:12;;;;;;;1.02;0.70;;;6.50;99.90;;;;;;5051716;28;20235;-74
2024/02/05 07:00:39;;;;;;;1.05;0.73;;;6.60;99.90;;;;;;5045504;28;20611;-73
2024/02/05 07:03:06;;;;;;;1.17;1.00;;;6.50;99.90;;;;;;5043140;28;20207;-74
2024/02/05 07:05:33;;;;;;;0.75;0.68;;;6.60;99.90;;;;;;5045563;28;20207;-74
2024/02/05 07:08:00;;;;;;;0.90;0.70;;;6.70;99.90;;;;;;5038416;28;20214;-74
2024/02/05 07:10:26;;;;;;;1.77;0.90;;;6.70;99.90;;;;;;5055360;28;20692;-74
2024/02/05 07:12:53;;;;;;;0.95;0.80;;;6.70;99.90;;;;;;5053694;28;20211;-74
2024/02/05 07:15:21;;;;;;;0.85;0.70;;;6.70;99.90;;;;;;5044862;28;20252;-73
2024/02/05 07:17:48;;;;;;;0.80;0.70;;;6.70;99.90;;;;;;5043924;28;20221;-75
2024/02/05 07:20:16;;;;;;;1.20;1.10;;;6.60;99.90;;;;;;5043933;28;20281;-74
2024/02/05 07:22:43;;;;;;;1.33;1.23;;;6.60;99.90;;;;;;5040924;28;20236;-74
2024/02/05 07:25:10;;;;;;;1.05;0.95;;;6.60;99.90;;;;;;5056958;28;20198;-75
2024/02/05 07:27:37;;;;;;;0.80;0.75;;;6.60;99.90;;;;;;5058832;28;20207;-75
2024/02/05 07:30:05;;;;;;;1.30;0.95;;;6.60;99.90;;;;;;5042788;28;20206;-74
2024/02/05 07:32:33;;;;;;;0.88;0.85;;;6.50;99.90;;;;;;5047644;28;20209;-75
2024/02/05 07:35:00;;;;;;;1.50;1.20;;;6.60;99.90;;;;;;5043338;28;20209;-74
2024/02/05 07:37:27;;;;;;;1.05;0.95;;;6.70;99.90;;;;;;5039841;28;20244;-74
2024/02/05 07:39:55;;;;;;;1.20;0.88;;;6.70;99.90;;;;;;5044214;28;20236;-74
2024/02/05 07:42:21;;;;;;;0.93;0.82;;;6.70;99.90;;;;;;5049565;28;20656;-74
2024/02/05 07:44:54;;;;;;;1.70;0.90;;;6.60;99.90;;;;;;5048801;28;20207;-75
2024/02/05 07:47:21;;;;;;;0.90;0.80;;;6.50;99.90;;;;;;5049045;28;20210;-75
2024/02/05 07:49:49;;;;;;;1.00;0.80;;;6.60;99.90;;;;;;5050080;28;20575;-74
2024/02/05 07:53:01;;;;;;;0.90;0.80;;;6.60;99.90;;;;;;5051232;28;20198;-74
2024/02/05 07:55:55;;;;;;;0.80;0.80;;;6.60;99.90;;;;;;4985524;28;20243;-75
2024/02/05 07:58:22;;;;;;;1.00;0.90;;;6.70;99.90;;;;;;4992513;28;20322;-75
2024/02/05 08:00:49;;;;;;;1.25;1.02;;;6.80;99.90;;;;;;5050041;28;20209;-75
2024/02/05 08:03:16;;;;;;;1.00;0.90;;;6.80;99.90;;;;;;5049729;28;20584;-76
2024/02/05 08:05:44;;;;;;;0.85;0.70;;;6.90;99.90;;;;;;5050805;28;20206;-74
2024/02/05 08:08:11;;;;;;;1.02;0.90;;;7.10;99.90;;;;;;5048686;28;20229;-75
2024/02/05 08:10:38;;;;;;;2.85;1.10;;;7.10;99.90;;;;;;5052420;28;20545;-75
2024/02/05 08:13:05;;;;;;;1.10;1.00;;;7.30;99.90;;;;;;5048840;28;20218;-76
2024/02/05 08:15:31;;;;;;;1.33;1.02;;;7.50;99.90;;;;;;5050796;28;20208;-75
2024/02/05 08:18:00;;;;;;;1.00;0.80;;;7.70;99.90;;;;;;5049472;28;20239;-75
2024/02/05 08:20:27;;;;;;;2.25;0.90;;;8.10;99.90;;;;;;5044039;28;20719;-75
2024/02/05 08:22:58;;;;;;;1.13;0.80;;;8.60;99.90;;;;;;5051475;28;20692;-75
2024/02/05 08:25:29;;;;;;;1.00;0.90;;;8.90;99.90;;;;;;5050475;28;20208;-75
2024/02/05 08:27:56;;;;;;;1.15;0.88;;;9.00;99.90;;;;;;5049526;28;20225;-75
2024/02/05 08:30:23;;;;;;;1.15;0.95;;;9.40;99.90;;;;;;5050100;28;20217;-75
2024/02/05 08:32:49;;;;;;;0.90;0.80;;;9.60;99.90;;;;;;5050711;28;20206;-75
2024/02/05 08:35:16;;;;;;;0.90;0.80;;;9.80;99.90;;;;;;5050848;28;20213;-75
2024/02/05 08:37:43;;;;;;;0.85;0.75;;;10.10;99.90;;;;;;5050221;28;20721;-75
2024/02/05 08:40:12;;;;;;;0.85;0.80;;;10.80;99.90;;;;;;5050550;28;20213;-75
2024/02/05 08:42:39;;;;;;;1.80;0.82;;;11.90;99.90;;;;;;5052298;28;20667;-75
2024/02/05 08:45:07;;;;;;;0.90;0.80;;;12.80;99.90;;;;;;5049391;28;20206;-75
2024/02/05 08:47:33;;;;;;;1.98;0.85;;;13.90;99.90;;;;;;5050765;28;20204;-75
2024/02/05 08:50:00;;;;;;;1.00;0.90;;;14.30;99.90;;;;;;5049254;28;20246;-74
2024/02/05 08:52:27;;;;;;;1.57;1.10;;;14.50;99.90;;;;;;5050684;28;20212;-75
2024/02/05 08:54:54;;;;;;;1.50;1.00;;;14.70;99.90;;;;;;5050455;28;20466;-75
2024/02/05 08:57:22;;;;;;;1.63;1.10;;;15.70;99.90;;;;;;5049852;28;20490;-75
2024/02/05 08:59:50;;;;;;;1.27;1.10;;;16.50;99.90;;;;;;5050573;28;20479;-75
2024/02/05 09:02:18;;;;;;;1.00;0.90;;;17.50;99.90;;;;;;5049425;28;20480;-75
2024/02/05 09:04:45;;;;;;;1.00;0.87;;;18.60;99.90;;;;;;5051387;28;20513;-75
2024/02/05 09:07:12;;;;;;;1.30;0.90;;;20.10;99.00;;;;;;5050644;28;20464;-75
2024/02/05 09:09:39;;;;;;;0.80;0.70;;;21.70;97.10;;;;;;5051342;28;20483;-75
2024/02/05 09:12:07;;;;;;;1.27;0.97;;;22.40;94.40;;;;;;5050130;28;20929;-75
2024/02/05 09:14:35;;;;;;;1.43;1.07;;;22.00;94.50;;;;;;5051742;28;20467;-75
2024/02/05 09:17:02;;;;;;;2.80;1.20;;;20.90;94.80;;;;;;5049523;28;20463;-75
2024/02/05 09:19:29;;;;;;;0.90;0.80;;;21.60;94.60;;;;;;5051123;28;20486;-75
2024/02/05 09:21:56;;;;;;;1.10;0.80;;;21.50;94.20;;;;;;5050705;28;20470;-75
2024/02/05 09:24:23;;;;;;;5.00;1.20;;;21.40;94.00;;;;;;5050554;28;20460;-75
2024/02/05 09:26:50;;;;;;;1.63;0.90;;;21.50;93.70;;;;;;5051807;28;20846;-76
2024/02/05 09:29:17;;;;;;;0.90;0.80;;;20.60;94.60;;;;;;5049868;28;20993;-75
2024/02/05 09:31:46;;;;;;;1.00;0.80;;;20.40;94.20;;;;;;5051287;28;20459;-75
2024/02/05 09:34:13;;;;;;;1.03;0.90;;;20.00;94.70;;;;;;5050317;28;20455;-75
2024/02/05 09:36:40;;;;;;;1.20;0.90;;;20.30;94.60;;;;;;5050951;28;20464;-75
2024/02/05 09:39:07;;;;;;;1.30;0.90;;;21.10;94.00;;;;;;5050737;28;20495;-74
2024/02/05 09:41:35;;;;;;;1.07;0.90;;;20.60;93.90;;;;;;5050909;28;20462;-75
2024/02/05 09:44:04;;;;;;;1.33;1.00;;;19.90;94.60;;;;;;5050530;28;20464;-75
2024/02/05 09:46:33;;;;;;;1.40;1.00;;;19.80;94.40;;;;;;5051344;28;20494;-74
2024/02/05 09:49:04;;;;;;;1.27;0.80;;;19.70;94.50;;;;;;5050727;28;20529;-75
2024/02/05 09:51:32;;;;;;;1.83;0.97;;;20.10;94.20;;;;;;5043907;28;20452;-74
2024/02/05 09:53:59;;;;;;;1.47;0.90;;;20.70;94.40;;;;;;5050973;28;20452;-74
2024/02/05 09:56:28;;;;;;;1.43;1.10;;;21.70;93.00;;;;;;5043095;28;20460;-75
2024/02/05 09:58:55;;;;;;;1.07;0.90;;;21.50;93.00;;;;;;5051031;28;20976;-75
2024/02/05 10:01:25;;;;;;;2.00;1.00;;;19.80;93.70;;;;;;5050116;28;20474;-74
2024/02/05 10:03:53;;;;;;;5.03;1.00;;;18.60;94.90;;;;;;5050828;28;20455;-75
2024/02/05 10:06:22;;;;;;;1.63;0.93;;;18.30;95.90;;;;;;5050498;28;20538;-74
2024/02/05 10:08:54;;;;;;;2.87;1.13;;;18.60;95.20;;;;;;5051387;28;20861;-74
2024/02/05 10:11:24;;;;;;;2.93;1.10;;;18.30;95.10;;;;;;5050912;28;20467;-75
2024/02/05 10:13:51;;;;;;;1.30;0.80;;;17.80;95.60;;;;;;5051294;28;20459;-75
2024/02/05 10:16:18;;;;;;;1.00;0.80;;;17.70;95.90;;;;;;5050942;28;20460;-74
2024/02/05 10:18:45;;;;;;;1.83;0.80;;;16.80;96.10;;;;;;5051324;28;20519;-74
2024/02/05 10:21:11;;;;;;;1.40;0.83;;;16.10;97.30;;;;;;5041534;28;20978;-75
2024/02/05 10:23:39;;;;;;;1.40;1.00;;;17.50;96.60;;;;;;5031688;28;20465;-75
2024/02/05 10:26:07;;;;;;;1.33;0.93;;;18.20;95.50;;;;;;5031172;28;20473;-74
2024/02/05 10:28:34;;;;;;;1.77;0.80;;;17.70;95.90;;;;;;5039457;28;20484;-75
2024/02/05 10:31:05;;;;;;;1.20;0.93;;;19.30;95.00;;;;;;5031450;28;20460;-74
2024/02/05 10:33:33;;;;;;;1.07;0.80;;;21.50;93.90;;;;;;5039617;28;20466;-74
2024/02/05 10:35:59;;;;;;;1.20;0.90;;;23.10;92.40;;;;;;5031913;28;20461;-75
2024/02/05 10:38:27;;;;;;;1.00;0.90;;;23.60;91.40;;;;;;5031476;28;20484;-75
2024/02/05 10:40:55;;;;;;;1.63;1.10;;;23.50;91.60;;;;;;5031437;28;20490;-75
2024/02/05 10:43:21;;;;;;;1.20;0.93;;;22.50;91.10;;;;;;5034475;28;20554;-75
2024/02/05 10:45:48;;;;;;;1.20;1.07;;;21.30;92.40;;;;;;5036658;28;20471;-74
2024/02/05 10:48:15;;;;;;;1.40;1.03;;;21.30;92.30;;;;;;5039772;28;20492;-74
2024/02/05 10:50:44;;;;;;;1.13;1.03;;;21.50;92.10;;;;;;5031776;28;20468;-75
2024/02/05 10:53:12;;;;;;;1.13;1.00;;;22.20;92.00;;;;;;5031697;28;20457;-77
2024/02/05 10:55:41;;;;;;;2.47;1.07;;;23.90;91.80;;;;;;5031696;28;21037;-75
2024/02/05 10:58:13;;;;;;;3.33;1.53;;;25.40;89.60;;;;;;5032052;28;20488;-76
2024/02/05 11:00:40;;;;;;;1.67;1.10;;;26.50;88.30;;;;;;5031798;28;20518;-76
2024/02/05 11:03:09;;;;;;;1.27;0.80;;;27.00;85.00;;;;;;5032433;28;20464;-75
2024/02/05 11:05:38;;;;;;;1.10;1.00;;;26.80;85.10;;;;;;5031818;28;20844;-76
2024/02/05 11:08:09;;;;;;;1.10;0.97;;;27.20;83.70;;;;;;5032654;28;20964;-76
2024/02/05 11:10:43;;;;;;;1.10;1.00;;;26.00;83.90;;;;;;5039720;28;20970;-76
2024/02/05 11:13:17;;;;;;;4.03;1.30;;;25.40;84.60;;;;;;5032771;28;20849;-75
2024/02/05 11:15:45;;;;;;;1.10;1.00;;;25.70;85.10;;;;;;5041035;28;20863;-75
2024/02/05 11:18:15;;;;;;;1.50;1.17;;;24.20;85.50;;;;;;5036599;28;20523;-75
2024/02/05 11:20:43;;;;;;;1.50;1.13;;;23.80;86.40;;;;;;5036444;28;20487;-75
2024/02/05 11:23:11;;;;;;;1.63;0.80;;;24.30;85.90;;;;;;5037109;28;20468;-76
2024/02/05 11:25:37;;;;;;;3.20;1.00;;;24.30;85.70;;;;;;5036228;28;20465;-76
2024/02/05 11:28:10;;;;;;;3.73;1.13;;;24.20;85.70;;;;;;5037010;28;20482;-75
2024/02/05 11:30:42;;;;;;;1.30;0.93;;;24.60;85.20;;;;;;5042563;28;20511;-75
2024/02/05 11:33:09;;;;;;;1.20;1.00;;;25.10;84.60;;;;;;5036507;28;20464;-75
2024/02/05 11:35:36;;;;;;;2.13;1.20;;;24.80;84.10;;;;;;5036155;28;20460;-75
2024/02/05 11:38:06;;;;;;;1.63;0.90;;;24.50;84.70;;;;;;5036613;28;20487;-75
2024/02/05 11:40:33;;;;;;;3.03;1.23;;;24.20;85.20;;;;;;5036369;28;20460;-75
2024/02/05 11:43:04;;;;;;;2.87;1.23;;;24.90;84.60;;;;;;5036631;28;21000;-74
2024/02/05 11:45:32;;;;;;;2.43;1.23;;;25.30;82.70;;;;;;5043045;28;20461;-74
2024/02/05 11:48:01;;;;;;;1.23;1.00;;;25.40;83.50;;;;;;5037925;28;20476;-74
2024/02/05 11:50:28;;;;;;;1.80;1.10;;;25.00;83.60;;;;;;5038751;28;20461;-75
2024/02/05 11:52:55;;;;;;;5.03;1.10;;;24.90;83.60;;;;;;5036613;28;20463;-74
2024/02/05 11:55:23;;;;;;;2.13;1.20;;;24.70;83.10;;;;;;5037768;28;20459;-74
2024/02/05 11:57:51;;;;;;;0.93;0.83;;;23.80;84.20;;;;;;5036769;28;20845;-75
2024/02/05 12:03:42;;;;;;;1.30;1.20;;;23.10;86.00;;;;;;5040480;28;20539;-75
2024/02/05 12:06:32;;;;;;;1.40;1.10;;;23.30;86.20;;;;;;5038580;28;20471;-75
2024/02/05 12:09:25;;;;;;;1.40;1.27;;;23.20;85.70;;;;;;5018302;28;20866;-75
2024/02/05 12:12:05;;;;;;;1.10;0.93;;;23.40;86.40;;;;;;5045088;28;20487;-76
2024/02/05 12:14:55;;;;;;;4.23;1.63;;;23.20;87.20;;;;;;5044191;28;20496;-76
2024/02/05 12:17:33;;;;;;;1.27;0.97;;;23.80;86.40;;;;;;5037577;28;20814;-76
2024/02/05 12:20:02;;;;;;;1.50;1.13;;;23.40;85.40;;;;;;5050254;28;20459;-76
2024/02/05 12:22:49;;;;;;;1.93;1.10;;;22.80;87.40;;;;;;5036244;28;20975;-76
2024/02/05 12:25:27;;;;;;;0.80;0.70;;;22.70;86.70;;;;;;5038454;28;20948;-75
2024/02/05 12:28:12;;;;;;;1.73;1.20;;;23.00;86.70;;;;;;5036115;28;20476;-76
2024/02/05 12:30:39;;;;;;;1.00;0.90;;;22.80;86.70;;;;;;5037149;28;21026;-75
2024/02/05 12:33:06;;;;;;;3.70;1.20;;;21.30;87.60;;;;;;5037854;28;20460;-75
2024/02/05 12:35:34;;;;;;;2.63;1.63;;;20.80;89.60;;;;;;5043342;28;20467;-75
2024/02/05 12:38:00;;;;;;;6.10;1.40;;;20.70;90.00;;;;;;5036847;28;20480;-76
2024/02/05 12:40:27;;;;;;;1.47;1.10;;;20.70;90.10;;;;;;5038035;28;20529;-75
2024/02/05 12:42:54;;;;;;;2.70;1.33;;;20.10;90.20;;;;;;5037281;28;20460;-76
2024/02/05 12:45:21;;;;;;;1.50;1.23;;;19.40;90.60;;;;;;5038408;28;20838;-76
2024/02/05 12:47:48;;;;;;;2.73;1.23;;;18.60;91.80;;;;;;5036580;28;20460;-76
2024/02/05 12:50:15;;;;;;;1.30;1.17;;;18.50;92.00;;;;;;5042603;28;20485;-75
2024/02/05 12:52:44;;;;;;;1.20;1.10;;;18.60;91.60;;;;;;5040742;28;20580;-76
2024/02/05 12:55:11;;;;;;;1.20;0.90;;;18.60;92.10;;;;;;5048697;28;20831;-75
2024/02/05 12:57:38;;;;;;;1.43;1.00;;;19.40;91.90;;;;;;5036705;28;20468;-76
2024/02/05 13:00:07;;;;;;;1.90;1.23;;;20.10;91.30;;;;;;5037410;28;20464;-76